Pagrindinis puslapis
METAR-TAF:

METAR-TAF

Oro uostai :

Napakiak, Aliaska, Jungtinės Amerikos Valstijos

platuma: 60-41-25N, ilguma: 161-58-43W, Aukštis: 5 m

Dabartinis oras

Ataskaita buvo paskelbta 53 minutes, ne 23:56 UTC
Vėjas 12 kt iš Šiaurės su gūsio iki 18 kt
Temperatūra -8°C
Drėgmė 73%
Slėgis 1011 hPa
Matomumas: 16.1 km
Giedras dangus

METAR: PANA 282356Z AUTO 36012G18KT 10SM CLR M08/M12 A2985 RMK AO2 SLP107 T10831117 11078 21111 51035 PWINO FZRANO

Laikas: 16:49 (00:49 UTC)


TAF: trūkstamas

Orai ataskaitas ir orų prognozės (METAR, TAF).

turimą stotys yra geltonos ir raudonos taškus žemėlapyje.

Perkelti pele per norėdami pamatyti stoties vardą.

Tada spustelėkite, norėdami matyti oro stebėjimo ir prognozės.

Norėdami pakeisti žemėlapį: spustelėkite ant žalios mygtukų su juodo kryžiaus žemyn,; žalią mygtuką su brūkšneliu, jei norite nutolinti; arba žalių rodyklių gretimoms žemėlapius.


METAR-TAF: